Adams, Illinois
Current Conditions -  °F | °C
As of 11:54 AM on Friday 21 Nov 2014 (Local Time) from KUIN Reporting Station
Clear Clear  
Wind Chill: -4°   Ceiling: Unl
Heat Index:   Visibility: 10mi
Dew Point: -11°   Wind: 14mph
Humidity: 42%   Direction: 130°SE
Pressure: 30.34"   Gusts: NA
Location:  39.8875°N, 91.0352°W
Report Text: KUIN 211754Z AUTO 13012KT 10SM CLR 01/M11 A3034 RMK AO2 SLP281 T00111106 10011 21083 58019
Loading
Personal Weather Stations






























Interactive Weather Map New forecast layout! Learn more

10-Day Weather Forecast

Advertisements
Track Severe Weather on mobile